Time;durP1;ratioP1;P1;durP2;ratioP2;P2;SDS_P1;SDS_P2;PMS_P1;PMS_P2;Temp;Humidity;BMP_temperature;BMP_pressure;BME280_temperature;BME280_humidity;BME280_pressure;Samples;Min_cycle;Max_cycle;Signal;HPM_P1;HPM_P2
2024/04/11 00:02:15;;;;;;;;;;;;;;;2.68;44.79;96886.88;5391431;26;19941;-66
2024/04/11 00:04:40;;;;;;;;;;;;;;;2.62;44.58;96877.59;5393711;26;19936;-66
2024/04/11 00:07:06;;;;;;;;;;;;;;;2.58;44.98;96887.44;5394616;26;19929;-66
2024/04/11 00:09:31;;;;;;;;;;;;;;;2.53;45.56;96884.25;5387885;26;19932;-66
2024/04/11 00:11:56;;;;;;;;;;;;;;;2.42;46.26;96881.47;5391168;26;19936;-66
2024/04/11 00:14:21;;;;;;;;;;;;;;;2.20;45.74;96882.78;5392743;26;20227;-66
2024/04/11 00:16:47;;;;;;;;;;;;;;;2.18;49.06;96880.22;5393699;26;19929;-66
2024/04/11 00:19:12;;;;;;;;;;;;;;;2.19;51.74;96881.09;5387959;26;19984;-66
2024/04/11 00:21:38;;;;;;;;;;;;;;;2.26;47.83;96887.66;5393938;26;19936;-66
2024/04/11 00:24:04;;;;;;;;;;;;;;;2.24;48.95;96879.00;5382859;26;20292;-66
2024/04/11 00:26:30;;;;;;;;;;;;;;;2.23;48.20;96872.06;5386766;26;19948;-66
2024/04/11 00:28:55;;;;;;;;;;;;;;;2.21;48.80;96873.97;5391476;26;19929;-66
2024/04/11 00:31:20;;;;;;;;;;;;;;;2.43;49.96;96873.47;5393824;26;19937;-66
2024/04/11 00:33:54;;;;;;;;;;;;;;;2.61;47.24;96868.00;5388753;26;19936;-66
2024/04/11 00:36:23;;;;;;;;;;;;;;;2.68;47.25;96866.66;5389072;26;19998;-66
2024/04/11 00:38:48;;;;;;;;;;;;;;;2.69;46.40;96864.88;5390723;26;20362;-66
2024/04/11 00:41:14;;;;;;;;;;;;;;;2.61;46.11;96862.72;5381502;26;19929;-66
2024/04/11 00:43:39;;;;;;;;;;;;;;;2.45;45.27;96871.59;5383420;26;19929;-66
2024/04/11 00:46:05;;;;;;;;;;;;;;;2.57;49.31;96867.34;5393536;26;19998;-66
2024/04/11 00:48:31;;;;;;;;;;;;;;;2.59;46.68;96860.19;5390866;26;19963;-66
2024/04/11 00:50:57;;;;;;;;;;;;;;;2.60;45.98;96864.53;5381282;26;19940;-66
2024/04/11 00:53:23;;;;;;;;;;;;;;;2.61;45.73;96853.06;5388798;26;20313;-67
2024/04/11 00:55:48;;;;;;;;;;;;;;;2.59;47.34;96854.94;5392741;26;20447;-66
2024/04/11 00:58:13;;;;;;;;;;;;;;;2.54;48.03;96854.41;5391748;26;20060;-66
2024/04/11 01:00:41;;;;;;;;;;;;;;;2.44;45.01;96858.53;5389663;26;19998;-66
2024/04/11 01:03:06;;;;;;;;;;;;;;;2.45;45.86;96852.34;5392048;26;19962;-66
2024/04/11 01:05:32;;;;;;;;;;;;;;;2.41;46.64;96843.81;5394021;26;19933;-66
2024/04/11 01:07:57;;;;;;;;;;;;;;;2.40;46.24;96852.63;5391165;26;20527;-66
2024/04/11 01:10:22;;;;;;;;;;;;;;;2.11;46.32;96857.94;5393066;26;19928;-66
2024/04/11 01:12:48;;;;;;;;;;;;;;;2.02;50.77;96867.22;5392703;26;19936;-66
2024/04/11 01:15:13;;;;;;;;;;;;;;;2.12;50.45;96868.31;5393955;26;20385;-66
2024/04/11 01:17:38;;;;;;;;;;;;;;;2.32;46.94;96871.53;5392590;26;19937;-66
2024/04/11 01:20:07;;;;;;;;;;;;;;;2.43;48.48;96867.38;5392305;26;20177;-66
2024/04/11 01:22:35;;;;;;;;;;;;;;;2.52;47.40;96859.75;5392449;26;19945;-66
2024/04/11 01:25:01;;;;;;;;;;;;;;;2.61;48.17;96860.09;5393020;26;19937;-66
2024/04/11 01:27:29;;;;;;;;;;;;;;;2.65;45.47;96862.44;5388930;26;19963;-66
2024/04/11 01:29:54;;;;;;;;;;;;;;;2.78;46.08;96872.19;5393289;26;19930;-66
2024/04/11 01:32:20;;;;;;;;;;;;;;;2.86;48.07;96869.91;5392550;26;20509;-66
2024/04/11 01:34:45;;;;;;;;;;;;;;;2.78;45.42;96873.03;5392562;26;19929;-66
2024/04/11 01:37:10;;;;;;;;;;;;;;;2.82;48.56;96871.03;5390212;26;20018;-66
2024/04/11 01:39:37;;;;;;;;;;;;;;;2.78;45.65;96867.78;5382361;26;19962;-66
2024/04/11 01:42:04;;;;;;;;;;;;;;;2.81;43.77;96865.88;5393367;26;19935;-66
2024/04/11 01:44:30;;;;;;;;;;;;;;;2.77;44.76;96866.09;5391648;26;19933;-66
2024/04/11 01:46:56;;;;;;;;;;;;;;;2.63;44.22;96869.56;5393539;26;19937;-66
2024/04/11 01:49:21;;;;;;;;;;;;;;;2.58;46.23;96866.41;5387065;26;20370;-66
2024/04/11 01:51:47;;;;;;;;;;;;;;;2.52;44.46;96874.69;5388587;26;20388;-66
2024/04/11 01:54:12;;;;;;;;;;;;;;;2.57;45.07;96879.66;5391555;26;20608;-66
2024/04/11 01:56:37;;;;;;;;;;;;;;;2.67;46.05;96877.28;5392918;26;19936;-66
2024/04/11 01:59:03;;;;;;;;;;;;;;;2.65;45.57;96877.38;5389666;26;19933;-66
2024/04/11 02:01:33;;;;;;;;;;;;;;;2.63;45.65;96880.09;5392814;26;19997;-66
2024/04/11 02:03:58;;;;;;;;;;;;;;;2.61;44.67;96876.75;5391244;26;20456;-66
2024/04/11 02:06:23;;;;;;;;;;;;;;;2.63;45.20;96874.84;5393329;26;19929;-66
2024/04/11 02:08:49;;;;;;;;;;;;;;;2.61;44.51;96870.63;5388531;26;19937;-66
2024/04/11 02:11:15;;;;;;;;;;;;;;;2.56;45.20;96870.06;5392361;26;20342;-66
2024/04/11 02:13:41;;;;;;;;;;;;;;;2.45;44.86;96876.00;5391729;26;19929;-66
2024/04/11 02:16:06;;;;;;;;;;;;;;;2.35;44.26;96875.75;5392378;26;20228;-66
2024/04/11 02:18:32;;;;;;;;;;;;;;;2.37;45.46;96879.97;5391607;26;20646;-66
2024/04/11 02:20:57;;;;;;;;;;;;;;;2.37;46.45;96877.34;5388184;26;19972;-66
2024/04/11 02:23:23;;;;;;;;;;;;;;;2.39;45.88;96878.06;5390508;26;20262;-66
2024/04/11 02:25:51;;;;;;;;;;;;;;;2.45;46.39;96881.28;5392009;26;19936;-66
2024/04/11 02:28:16;;;;;;;;;;;;;;;2.60;45.61;96875.06;5391419;26;19929;-66
2024/04/11 02:30:43;;;;;;;;;;;;;;;2.81;45.51;96876.41;5386858;26;19933;-66
2024/04/11 02:33:10;;;;;;;;;;;;;;;2.88;45.52;96883.81;5388725;26;19941;-66
2024/04/11 02:35:39;;;;;;;;;;;;;;;2.99;45.24;96883.13;5386800;26;20373;-66
2024/04/11 02:38:04;;;;;;;;;;;;;;;3.06;44.91;96888.00;5388496;26;20351;-66
2024/04/11 02:40:29;;;;;;;;;;;;;;;3.12;45.13;96887.59;5378763;26;19941;-66
2024/04/11 02:42:55;;;;;;;;;;;;;;;3.21;44.55;96892.25;5386072;26;20345;-66
2024/04/11 02:45:21;;;;;;;;;;;;;;;3.24;44.68;96889.44;5387804;26;20143;-66
2024/04/11 02:47:46;;;;;;;;;;;;;;;3.26;44.50;96895.44;5391065;26;20366;-66
2024/04/11 02:50:15;;;;;;;;;;;;;;;3.32;44.51;96891.56;5385157;26;19937;-66
2024/04/11 02:52:41;;;;;;;;;;;;;;;3.38;44.37;96890.31;5380981;26;20269;-66
2024/04/11 02:55:06;;;;;;;;;;;;;;;3.36;43.59;96892.19;5386101;26;19936;-66
2024/04/11 02:57:31;;;;;;;;;;;;;;;3.31;44.53;96892.50;5391815;26;19957;-66
2024/04/11 02:59:56;;;;;;;;;;;;;;;3.28;44.38;96896.19;5386791;26;19936;-66
2024/04/11 03:02:28;;;;;;;;;;;;;;;3.31;43.97;96900.41;5380400;26;19966;-66
2024/04/11 03:04:54;;;;;;;;;;;;;;;3.38;44.45;96903.47;5384925;26;19937;-66
2024/04/11 03:07:19;;;;;;;;;;;;;;;3.41;44.25;96905.91;5394519;26;20039;-66
2024/04/11 03:09:44;;;;;;;;;;;;;;;3.45;44.21;96901.31;5393266;26;20444;-66
2024/04/11 03:12:10;;;;;;;;;;;;;;;3.53;44.17;96910.38;5394411;26;19929;-66
2024/04/11 03:14:36;;;;;;;;;;;;;;;3.51;43.63;96904.38;5394033;26;19928;-66
2024/04/11 03:17:04;;;;;;;;;;;;;;;3.52;43.51;96903.44;5394664;26;19989;-66
2024/04/11 03:19:29;;;;;;;;;;;;;;;3.52;43.19;96910.50;5390376;26;19939;-66
2024/04/11 03:21:54;;;;;;;;;;;;;;;3.44;43.40;96905.72;5395596;26;19929;-66
2024/04/11 03:24:19;;;;;;;;;;;;;;;3.39;43.26;96911.28;5391028;26;20768;-66
2024/04/11 03:26:45;;;;;;;;;;;;;;;3.36;43.60;96906.19;5386695;26;20329;-66
2024/04/11 03:29:10;;;;;;;;;;;;;;;3.34;43.04;96905.47;5386597;26;19936;-66
2024/04/11 03:31:35;;;;;;;;;;;;;;;3.34;43.43;96909.88;5390814;26;19995;-66
2024/04/11 03:34:02;;;;;;;;;;;;;;;3.22;43.20;96906.25;5389046;26;20001;-66
2024/04/11 03:36:27;;;;;;;;;;;;;;;3.21;42.48;96909.84;5394200;26;20480;-66
2024/04/11 03:38:54;;;;;;;;;;;;;;;3.17;43.30;96915.28;5390524;26;19993;-66
2024/04/11 03:41:20;;;;;;;;;;;;;;;3.13;43.24;96908.53;5384927;26;20003;-66
2024/04/11 03:43:46;;;;;;;;;;;;;;;3.09;43.60;96912.31;5393993;26;20376;-66
2024/04/11 03:46:18;;;;;;;;;;;;;;;3.06;43.89;96912.50;5394739;26;20438;-66
2024/04/11 03:48:44;;;;;;;;;;;;;;;3.08;43.85;96910.63;5394107;26;19980;-66
2024/04/11 03:51:19;;;;;;;;;;;;;;;3.09;43.91;96908.84;5391398;26;20443;-66
2024/04/11 03:53:45;;;;;;;;;;;;;;;3.11;43.75;96906.94;5358974;26;20341;-66
2024/04/11 03:56:14;;;;;;;;;;;;;;;3.09;43.64;96914.94;5377042;26;20598;-66
2024/04/11 03:58:40;;;;;;;;;;;;;;;3.02;43.38;96919.75;5394064;26;19940;-66
2024/04/11 04:01:06;;;;;;;;;;;;;;;3.01;43.39;96917.22;5389807;26;20423;-66
2024/04/11 04:03:32;;;;;;;;;;;;;;;2.99;44.01;96916.50;5393281;26;19929;-66
2024/04/11 04:05:58;;;;;;;;;;;;;;;3.02;43.49;96913.66;5394047;26;20445;-66
2024/04/11 04:08:23;;;;;;;;;;;;;;;3.00;43.74;96911.09;5394500;26;19957;-66
2024/04/11 04:10:48;;;;;;;;;;;;;;;3.01;43.73;96917.22;5394373;26;19998;-66
2024/04/11 04:13:13;;;;;;;;;;;;;;;2.98;43.20;96914.78;5396016;26;20577;-66
2024/04/11 04:15:39;;;;;;;;;;;;;;;2.93;43.53;96911.63;5391721;26;20028;-66
2024/04/11 04:18:06;;;;;;;;;;;;;;;2.85;43.59;96912.09;5394586;26;20424;-66
2024/04/11 04:20:31;;;;;;;;;;;;;;;2.81;43.87;96908.81;5392741;26;19932;-66
2024/04/11 04:22:57;;;;;;;;;;;;;;;2.77;44.13;96907.31;5394021;26;19940;-66
2024/04/11 04:25:25;;;;;;;;;;;;;;;2.75;44.49;96912.69;5388955;26;19936;-66
2024/04/11 04:27:50;;;;;;;;;;;;;;;2.75;46.44;96917.94;5394251;26;19998;-66
2024/04/11 04:30:15;;;;;;;;;;;;;;;2.90;45.84;96913.47;5386347;26;19941;-66
2024/04/11 04:32:41;;;;;;;;;;;;;;;3.03;45.53;96910.09;5393513;26;19935;-66
2024/04/11 04:35:09;;;;;;;;;;;;;;;3.10;45.09;96916.63;5392427;26;19957;-66
2024/04/11 04:37:34;;;;;;;;;;;;;;;3.35;44.56;96928.22;5398104;26;19945;-66
2024/04/11 04:39:59;;;;;;;;;;;;;;;3.61;43.78;96925.66;5375839;26;20010;-66
2024/04/11 04:42:25;;;;;;;;;;;;;;;3.76;43.76;96930.88;5393735;26;20391;-66
2024/04/11 04:44:54;;;;;;;;;;;;;;;3.84;43.53;96933.00;5392844;26;19936;-66
2024/04/11 04:47:28;;;;;;;;;;;;;;;3.85;42.87;96932.91;5393542;26;19936;-66
2024/04/11 04:49:53;;;;;;;;;;;;;;;3.88;43.25;96930.03;5392515;26;20711;-66
2024/04/11 04:52:18;;;;;;;;;;;;;;;3.92;42.87;96934.16;5398454;26;20273;-66
2024/04/11 04:54:44;;;;;;;;;;;;;;;3.90;42.75;96927.31;5396636;26;19940;-66
2024/04/11 04:57:11;;;;;;;;;;;;;;;3.87;42.92;96925.72;5389118;26;19936;-66
2024/04/11 04:59:37;;;;;;;;;;;;;;;3.79;42.83;96926.25;5392527;26;20018;-66
2024/04/11 05:02:03;;;;;;;;;;;;;;;3.77;42.77;96925.50;5392576;26;19937;-66
2024/04/11 05:04:32;;;;;;;;;;;;;;;3.76;43.08;96920.34;5392145;26;20407;-66
2024/04/11 05:06:58;;;;;;;;;;;;;;;3.60;43.10;96921.34;5393071;26;20655;-66
2024/04/11 05:09:24;;;;;;;;;;;;;;;3.73;43.38;96933.69;5392915;26;19998;-66
2024/04/11 05:11:50;;;;;;;;;;;;;;;3.85;43.30;96926.78;5395324;26;19928;-66
2024/04/11 05:14:16;;;;;;;;;;;;;;;3.97;42.93;96935.63;5393177;26;20368;-66
2024/04/11 05:16:43;;;;;;;;;;;;;;;4.09;43.08;96932.19;5392072;26;20295;-66
2024/04/11 05:19:11;;;;;;;;;;;;;;;4.12;43.01;96926.69;5393460;26;19929;-66
2024/04/11 05:21:39;;;;;;;;;;;;;;;4.16;43.30;96932.59;5386145;26;20006;-66
2024/04/11 05:24:04;;;;;;;;;;;;;;;4.31;43.15;96933.34;5392606;26;20438;-66
2024/04/11 05:26:31;;;;;;;;;;;;;;;4.47;42.53;96927.84;5389905;26;19929;-66
2024/04/11 05:28:57;;;;;;;;;;;;;;;4.62;41.53;96939.13;5385036;26;20750;-66
2024/04/11 05:31:26;;;;;;;;;;;;;;;4.84;42.29;96929.69;5392236;26;19929;-66
2024/04/11 05:33:53;;;;;;;;;;;;;;;4.82;40.75;96927.16;5392865;26;20361;-66
2024/04/11 05:36:21;;;;;;;;;;;;;;;5.03;41.44;96925.75;5392447;26;20428;-66
2024/04/11 05:38:48;;;;;;;;;;;;;;;5.27;40.77;96927.59;5385087;26;19930;-66
2024/04/11 05:41:14;;;;;;;;;;;;;;;5.46;40.09;96927.06;5390104;26;19936;-66
2024/04/11 05:43:42;;;;;;;;;;;;;;;5.48;39.62;96931.28;5392156;26;19972;-66
2024/04/11 05:46:07;;;;;;;;;;;;;;;5.35;40.12;96919.94;5386183;26;20233;-66
2024/04/11 05:48:32;;;;;;;;;;;;;;;5.36;41.25;96911.06;5389758;26;19961;-66
2024/04/11 05:50:58;;;;;;;;;;;;;;;5.78;40.49;96901.84;5390078;26;20660;-66
2024/04/11 05:53:23;;;;;;;;;;;;;;;5.78;40.26;96900.03;5390975;26;20618;-66
2024/04/11 05:55:49;;;;;;;;;;;;;;;5.97;40.76;96901.28;5391723;26;19929;-66
2024/04/11 05:58:14;;;;;;;;;;;;;;;6.08;39.71;96909.22;5388824;26;20246;-66
2024/04/11 06:00:39;;;;;;;;;;;;;;;6.27;40.44;96912.25;5392146;26;20603;-66
2024/04/11 06:03:08;;;;;;;;;;;;;;;6.38;38.82;96910.47;5389660;26;19971;-66
2024/04/11 06:05:38;;;;;;;;;;;;;;;6.61;38.66;96902.56;5384883;26;19929;-67
2024/04/11 06:08:05;;;;;;;;;;;;;;;6.74;38.97;96907.72;5382036;26;19938;-66
2024/04/11 06:10:30;;;;;;;;;;;;;;;6.39;38.15;96908.66;5389762;26;19935;-66
2024/04/11 06:12:56;;;;;;;;;;;;;;;6.74;39.03;96907.72;5387184;26;19937;-67
2024/04/11 06:15:21;;;;;;;;;;;;;;;6.87;38.96;96904.09;5384757;26;20010;-66
2024/04/11 06:17:47;;;;;;;;;;;;;;;6.79;37.60;96910.00;5391925;26;20416;-66
2024/04/11 06:20:16;;;;;;;;;;;;;;;6.79;38.59;96917.94;5391809;26;20270;-66
2024/04/11 06:22:51;;;;;;;;;;;;;;;6.69;37.47;96919.63;5389272;26;19967;-66
2024/04/11 06:25:17;;;;;;;;;;;;;;;6.61;37.99;96925.53;5387531;26;20263;-66
2024/04/11 06:27:43;;;;;;;;;;;;;;;7.14;37.28;96929.31;5385005;26;20337;-66
2024/04/11 06:30:14;;;;;;;;;;;;;;;6.97;38.21;96928.03;5390113;26;19929;-66
2024/04/11 06:32:39;;;;;;;;;;;;;;;7.33;37.36;96928.66;5389916;26;19929;-66
2024/04/11 06:35:05;;;;;;;;;;;;;;;7.30;37.93;96926.25;5390308;26;20095;-66
2024/04/11 06:37:31;;;;;;;;;;;;;;;7.24;37.25;96932.91;5374659;26;20208;-66
2024/04/11 06:39:58;;;;;;;;;;;;;;;7.26;37.39;96944.22;5380040;26;19929;-66
2024/04/11 06:42:24;;;;;;;;;;;;;;;7.24;36.94;96946.16;5388834;26;19933;-66
2024/04/11 06:44:49;;;;;;;;;;;;;;;7.45;36.76;96942.72;5394649;26;19944;-66
2024/04/11 06:47:15;;;;;;;;;;;;;;;7.54;37.11;96960.53;5391315;26;20074;-66
2024/04/11 06:49:41;;;;;;;;;;;;;;;6.74;36.69;96959.81;5393119;26;20214;-66
2024/04/11 06:52:12;;;;;;;;;;;;;;;7.24;36.72;96954.09;5394287;26;20906;-66
2024/04/11 06:54:40;;;;;;;;;;;;;;;7.68;36.95;96961.19;5393978;26;19947;-66
2024/04/11 06:57:06;;;;;;;;;;;;;;;7.65;35.85;96964.94;5390359;26;19929;-66
2024/04/11 06:59:31;;;;;;;;;;;;;;;7.75;35.82;96958.88;5385983;26;19933;-66
2024/04/11 07:01:58;;;;;;;;;;;;;;;8.21;35.38;96959.53;5395052;26;19936;-66
2024/04/11 07:04:23;;;;;;;;;;;;;;;8.19;36.01;96961.44;5392640;26;19936;-66
2024/04/11 07:06:49;;;;;;;;;;;;;;;8.16;35.12;96961.72;5385647;26;20381;-67
2024/04/11 07:09:14;;;;;;;;;;;;;;;6.96;36.73;96966.06;5394671;26;20641;-67
2024/04/11 07:11:43;;;;;;;;;;;;;;;7.18;36.91;96969.66;5393496;26;20299;-66
2024/04/11 07:14:15;;;;;;;;;;;;;;;7.42;36.30;96974.78;5395947;26;20557;-66
2024/04/11 07:16:44;;;;;;;;;;;;;;;7.21;37.18;96977.34;5390465;26;20737;-66
2024/04/11 07:19:09;;;;;;;;;;;;;;;8.61;35.31;96981.81;5393862;26;19940;-66
2024/04/11 07:21:38;;;;;;;;;;;;;;;8.74;34.02;96978.94;5394636;26;19968;-66
2024/04/11 07:24:03;;;;;;;;;;;;;;;9.31;33.28;96970.50;5395012;26;19965;-67
2024/04/11 07:26:29;;;;;;;;;;;;;;;9.42;34.35;96964.19;5388670;26;20236;-67
2024/04/11 07:28:54;;;;;;;;;;;;;;;9.76;36.66;96967.47;5394182;26;20023;-66
2024/04/11 07:31:21;;;;;;;;;;;;;;;9.84;37.41;96975.59;5392650;26;19937;-66
2024/04/11 07:33:48;;;;;;;;;;;;;;;9.53;32.68;96968.56;5393271;26;19937;-67
2024/04/11 07:36:13;;;;;;;;;;;;;;;9.84;34.61;96971.13;5394141;26;20259;-67
2024/04/11 07:38:40;;;;;;;;;;;;;;;8.55;35.38;96969.06;5394162;26;19937;-67
2024/04/11 07:41:17;;;;;;;;;;;;;;;7.90;36.31;96976.22;5382158;26;20401;-66
2024/04/11 07:43:47;;;;;;;;;;;;;;;9.20;34.27;96981.22;5394122;26;19929;-66
2024/04/11 07:46:13;;;;;;;;;;;;;;;9.78;33.82;96982.31;5391924;26;20425;-66
2024/04/11 07:48:41;;;;;;;;;;;;;;;9.75;34.02;96985.22;5393054;26;19935;-66
2024/04/11 07:51:09;;;;;;;;;;;;;;;8.73;35.53;96977.25;5392527;26;19929;-66
2024/04/11 07:53:35;;;;;;;;;;;;;;;9.50;34.42;96974.16;5388405;26;20055;-66
2024/04/11 07:56:00;;;;;;;;;;;;;;;9.63;32.94;96981.03;5392136;26;19955;-66
2024/04/11 07:58:25;;;;;;;;;;;;;;;9.58;33.12;96984.94;5381251;26;19952;-66
2024/04/11 08:00:54;;;;;;;;;;;;;;;8.36;33.54;96999.00;5390771;26;20323;-66
2024/04/11 08:03:20;;;;;;;;;;;;;;;9.61;33.24;96988.28;5399993;26;19929;-66
2024/04/11 08:05:46;;;;;;;;;;;;;;;9.11;33.08;96993.50;5388557;26;20624;-66
2024/04/11 08:08:12;;;;;;;;;;;;;;;8.61;33.94;96988.94;5393075;26;20452;-66
2024/04/11 08:10:37;;;;;;;;;;;;;;;8.08;35.05;97009.25;5382521;26;20766;-66
2024/04/11 08:13:02;;;;;;;;;;;;;;;8.30;34.82;97001.19;5393655;26;19929;-66
2024/04/11 08:15:28;;;;;;;;;;;;;;;6.09;39.17;97024.59;5394106;26;19973;-66
2024/04/11 08:17:53;;;;;;;;;;;;;;;8.32;35.25;97010.84;5394689;26;19933;-66
2024/04/11 08:20:19;;;;;;;;;;;;;;;6.87;36.74;97028.53;5393062;26;20024;-66
2024/04/11 08:22:46;;;;;;;;;;;;;;;8.45;35.21;97022.09;5394347;26;19965;-66
2024/04/11 08:25:15;;;;;;;;;;;;;;;8.82;33.72;97032.25;5390049;26;19933;-66
2024/04/11 08:27:40;;;;;;;;;;;;;;;8.86;32.79;97035.47;5388939;26;19929;-66
2024/04/11 08:30:06;;;;;;;;;;;;;;;7.73;35.32;97021.78;5393723;26;19940;-66
2024/04/11 08:32:34;;;;;;;;;;;;;;;8.10;33.72;97033.84;5393142;26;20543;-66
2024/04/11 08:35:02;;;;;;;;;;;;;;;8.34;34.25;97028.31;5389545;26;20515;-66
2024/04/11 08:37:30;;;;;;;;;;;;;;;9.06;32.94;97038.25;5392665;26;20355;-67
2024/04/11 08:39:56;;;;;;;;;;;;;;;7.40;35.72;97043.78;5393235;26;19929;-66
2024/04/11 08:42:21;;;;;;;;;;;;;;;8.83;33.27;97046.34;5393278;26;20282;-67
2024/04/11 08:44:57;;;;;;;;;;;;;;;9.20;33.63;97045.00;5389556;26;20418;-66
2024/04/11 08:47:23;;;;;;;;;;;;;;;9.22;33.41;97044.88;5389519;26;19944;-66
2024/04/11 08:49:48;;;;;;;;;;;;;;;9.37;33.25;97043.53;5392908;26;19929;-66
2024/04/11 08:52:13;;;;;;;;;;;;;;;8.91;33.71;97053.66;5391284;26;20287;-66
2024/04/11 08:54:40;;;;;;;;;;;;;;;8.41;33.76;97053.38;5393735;26;19937;-66
2024/04/11 08:57:05;;;;;;;;;;;;;;;9.57;33.86;97049.75;5389646;26;19944;-66
2024/04/11 08:59:31;;;;;;;;;;;;;;;9.85;32.25;97055.25;5391800;26;19929;-66
2024/04/11 09:01:56;;;;;;;;;;;;;;;9.37;32.27;97056.81;5391814;26;19936;-66
2024/04/11 09:04:22;;;;;;;;;;;;;;;9.31;33.17;97063.50;5377889;26;19929;-66
2024/04/11 09:06:47;;;;;;;;;;;;;;;9.75;33.04;97065.03;5351126;26;19929;-66
2024/04/11 09:09:16;;;;;;;;;;;;;;;8.81;33.80;97066.91;5387920;26;20402;-66
2024/04/11 09:11:44;;;;;;;;;;;;;;;9.67;32.76;97062.22;5385771;26;19951;-66
2024/04/11 09:14:13;;;;;;;;;;;;;;;9.65;32.39;97065.00;5392055;26;19936;-66
2024/04/11 09:16:38;;;;;;;;;;;;;;;9.42;32.25;97072.38;5387286;26;19929;-66
2024/04/11 09:19:04;;;;;;;;;;;;;;;7.71;33.66;97076.72;5393642;26;20012;-66
2024/04/11 09:21:31;;;;;;;;;;;;;;;9.18;32.58;97073.53;5392971;26;20388;-66
2024/04/11 09:23:57;;;;;;;;;;;;;;;9.50;32.95;97072.53;5391280;26;20317;-66
2024/04/11 09:26:22;;;;;;;;;;;;;;;8.42;33.27;97078.09;5378992;26;20277;-66
2024/04/11 09:28:48;;;;;;;;;;;;;;;9.45;32.52;97066.75;5389480;26;19933;-66
2024/04/11 09:31:14;;;;;;;;;;;;;;;8.54;35.01;97078.88;5390209;26;20421;-66
2024/04/11 09:33:42;;;;;;;;;;;;;;;9.18;33.16;97074.34;5380299;26;20515;-67
2024/04/11 09:36:11;;;;;;;;;;;;;;;10.26;30.59;97086.25;5388106;26;19932;-66
2024/04/11 09:38:36;;;;;;;;;;;;;;;10.51;30.42;97081.34;5389105;26;20309;-66
2024/04/11 09:41:04;;;;;;;;;;;;;;;9.70;32.37;97077.91;5389131;26;19998;-67
2024/04/11 09:43:31;;;;;;;;;;;;;;;10.44;31.75;97082.91;5387316;26;20332;-66
2024/04/11 09:45:56;;;;;;;;;;;;;;;9.82;31.88;97076.78;5391706;26;19953;-66
2024/04/11 09:48:22;;;;;;;;;;;;;;;9.89;32.31;97078.91;5390395;26;19940;-67
2024/04/11 09:50:48;;;;;;;;;;;;;;;9.24;32.29;97082.78;5386892;26;20347;-67
2024/04/11 09:53:25;;;;;;;;;;;;;;;9.83;31.67;97083.78;5392447;26;19937;-66
2024/04/11 09:55:51;;;;;;;;;;;;;;;10.17;31.17;97079.09;5390781;26;19998;-67
2024/04/11 09:58:20;;;;;;;;;;;;;;;10.34;32.21;97083.72;5388368;26;19937;-66
2024/04/11 10:03:29;;;;;;;;;;;;;;;10.10;30.93;97077.00;5377834;26;19998;-67
2024/04/11 10:05:59;;;;;;;;;;;;;;;11.10;30.32;97088.41;5384973;26;20564;-67
2024/04/11 10:08:27;;;;;;;;;;;;;;;9.89;32.30;97084.25;5380369;26;19936;-66
2024/04/11 10:10:53;;;;;;;;;;;;;;;10.11;31.40;97099.13;5388559;26;20250;-66
2024/04/11 10:13:21;;;;;;;;;;;;;;;9.84;32.03;97092.63;5390418;26;19933;-67
2024/04/11 10:15:48;;;;;;;;;;;;;;;10.34;31.50;97090.88;5389535;26;20280;-66
2024/04/11 10:18:15;;;;;;;;;;;;;;;8.06;35.87;97086.31;5395176;26;19935;-66
2024/04/11 10:20:59;;;;;;;;;;;;;;;7.76;36.95;97086.00;5392245;26;19941;-67
2024/04/11 10:23:24;;;;;;;;;;;;;;;9.55;34.98;97088.91;5390834;26;20373;-67
2024/04/11 10:25:50;;;;;;;;;;;;;;;11.38;30.96;97083.09;5382957;26;19934;-66
2024/04/11 10:28:15;;;;;;;;;;;;;;;10.21;31.93;97085.84;5390132;26;20322;-66
2024/04/11 10:30:43;;;;;;;;;;;;;;;10.07;33.85;97090.56;5393879;26;19929;-67
2024/04/11 10:33:13;;;;;;;;;;;;;;;10.05;33.19;97089.00;5392877;26;19933;-67
2024/04/11 10:35:46;;;;;;;;;;;;;;;10.76;32.54;97095.03;5394907;26;19928;-67
2024/04/11 10:38:13;;;;;;;;;;;;;;;11.48;31.10;97099.06;5393278;26;20468;-67
2024/04/11 10:40:41;;;;;;;;;;;;;;;12.15;30.76;97090.00;5386138;26;20413;-66
2024/04/11 10:43:13;;;;;;;;;;;;;;;11.49;31.05;97084.75;5392115;26;20005;-67
2024/04/11 10:45:38;;;;;;;;;;;;;;;12.70;29.36;97080.09;5393160;26;20050;-66
2024/04/11 10:48:08;;;;;;;;;;;;;;;11.36;32.80;97088.56;5394713;26;19948;-66
2024/04/11 10:50:34;;;;;;;;;;;;;;;12.76;30.38;97074.16;5395477;26;20504;-66
2024/04/11 10:53:01;;;;;;;;;;;;;;;11.63;31.25;97073.56;5394068;26;20217;-66
2024/04/11 10:55:28;;;;;;;;;;;;;;;12.00;31.09;97066.44;5393510;26;19936;-66
2024/04/11 10:58:28;;;;;;;;;;;;;;;13.24;30.51;97063.09;5392268;26;19936;-66
2024/04/11 11:06:25;;;;;;;;;;;;;;;12.26;31.04;97060.41;5389278;26;19929;-66
2024/04/11 11:08:54;;;;;;;;;;;;;;;11.63;31.59;97068.22;5395045;26;19945;-67
2024/04/11 11:11:21;;;;;;;;;;;;;;;11.69;31.66;97053.47;5394427;26;20019;-66
2024/04/11 11:13:47;;;;;;;;;;;;;;;12.25;31.33;97047.19;5394774;26;20028;-66
2024/04/11 11:16:13;;;;;;;;;;;;;;;11.52;32.36;97055.09;5394611;26;19929;-67
2024/04/11 11:18:43;;;;;;;;;;;;;;;12.38;32.45;97058.31;5381354;26;19929;-66
2024/04/11 11:21:08;;;;;;;;;;;;;;;12.38;31.34;97063.66;5391236;26;19936;-66
2024/04/11 11:23:34;;;;;;;;;;;;;;;12.10;31.62;97060.25;5391692;26;20597;-66
2024/04/11 11:26:01;;;;;;;;;;;;;;;12.78;30.70;97058.78;5393840;26;19997;-66
2024/04/11 11:28:27;;;;;;;;;;;;;;;13.50;30.85;97061.38;5393138;26;19929;-66
2024/04/11 11:30:53;;;;;;;;;;;;;;;12.45;31.18;97058.56;5386769;26;19929;-66
2024/04/11 11:33:23;;;;;;;;;;;;;;;13.86;28.96;97058.47;5393407;26;19936;-78
2024/04/11 11:35:50;;;;;;;;;;;;;;;13.07;30.24;97056.81;5395819;26;20301;-75
2024/04/11 11:38:15;;;;;;;;;;;;;;;12.41;31.24;97063.34;5369949;26;19940;-78
2024/04/11 11:40:46;;;;;;;;;;;;;;;13.36;30.32;97055.59;5389457;26;20374;-71
2024/04/11 11:43:16;;;;;;;;;;;;;;;13.21;30.82;97051.84;5381411;26;19994;-69
2024/04/11 11:48:35;;;;;;;;;;;;;;;14.28;29.49;97055.88;5394309;26;20218;-70
2024/04/11 11:51:05;;;;;;;;;;;;;;;13.90;29.47;97048.31;5389720;26;19929;-70
2024/04/11 11:53:33;;;;;;;;;;;;;;;14.20;29.59;97041.47;5391140;26;19936;-70
2024/04/11 11:56:05;;;;;;;;;;;;;;;12.12;33.11;97047.56;5379959;26;19940;-70
2024/04/11 11:58:30;;;;;;;;;;;;;;;12.82;32.02;97059.31;5392680;26;20428;-70
2024/04/11 12:01:19;;;;;;;;;;;;;;;13.75;30.44;97048.06;5388680;26;19929;-70
2024/04/11 12:03:44;;;;;;;;;;;;;;;12.11;33.23;97049.41;5392912;26;19943;-70
2024/04/11 12:06:12;;;;;;;;;;;;;;;13.72;31.34;97049.22;5394390;26;19929;-70
2024/04/11 12:08:37;;;;;;;;;;;;;;;14.27;30.33;97048.81;5393260;26;19944;-72
2024/04/11 12:13:31;;;;;;;;;;;;;;;14.04;31.17;97044.16;5393119;26;19929;-72
2024/04/11 12:15:56;;;;;;;;;;;;;;;15.10;29.23;97041.56;5394424;26;20542;-72
2024/04/11 12:18:22;;;;;;;;;;;;;;;12.83;32.36;97044.97;5393970;26;19929;-70
2024/04/11 12:20:53;;;;;;;;;;;;;;;13.63;32.42;97040.31;5393748;26;19929;-69
2024/04/11 12:23:22;;;;;;;;;;;;;;;14.45;30.78;97037.97;5388992;26;19953;-70
2024/04/11 12:25:47;;;;;;;;;;;;;;;15.79;28.69;97041.97;5394908;26;20264;-70
2024/04/11 12:28:12;;;;;;;;;;;;;;;15.16;29.67;97045.41;5389151;26;19973;-70
2024/04/11 12:30:40;;;;;;;;;;;;;;;15.15;28.90;97058.97;5394420;26;20472;-69
2024/04/11 12:33:08;;;;;;;;;;;;;;;15.41;29.40;97053.38;5388872;26;19937;-69
2024/04/11 12:35:45;;;;;;;;;;;;;;;15.72;28.31;97041.84;5393202;26;20306;-70
2024/04/11 12:38:13;;;;;;;;;;;;;;;16.26;28.43;97034.75;5393845;26;20403;-70
2024/04/11 12:40:39;;;;;;;;;;;;;;;16.45;29.27;97045.25;5393538;26;19929;-70
2024/04/11 12:43:05;;;;;;;;;;;;;;;16.55;28.13;97039.63;5385753;26;20335;-70
2024/04/11 12:45:31;;;;;;;;;;;;;;;17.17;26.69;97044.91;5396247;26;20494;-70
2024/04/11 12:48:04;;;;;;;;;;;;;;;17.78;25.81;97052.72;5392515;26;20793;-70
2024/04/11 12:50:30;;;;;;;;;;;;;;;16.76;27.27;97037.06;5376313;26;19981;-70
2024/04/11 12:52:56;;;;;;;;;;;;;;;15.18;29.69;97056.81;5392068;26;19941;-69
2024/04/11 12:55:24;;;;;;;;;;;;;;;16.51;27.51;97039.13;5390144;26;19929;-70
2024/04/11 12:57:53;;;;;;;;;;;;;;;16.06;28.79;97047.00;5392508;26;19968;-70
2024/04/11 13:01:05;;;;;;;;;;;;;;;14.91;30.58;97047.31;5384058;26;20626;-69
2024/04/11 13:03:07;;;;;;;;;;;;;;;15.57;29.80;97046.31;5387328;26;19998;-69
2024/04/11 13:05:52;;;;;;;;;;;;;;;13.84;32.76;97039.06;5392548;26;19929;-69
2024/04/11 13:08:18;;;;;;;;;;;;;;;16.48;29.57;97036.81;5384121;26;20189;-70